CheckWX is a tool to help pilots better visualize weather data.  It is not intended as a substitute for an official pre-flight weather briefing.

07:33:27 UTC

KOXR TAF
Oxnard Airport
Oxnard, California, USA
KOXR 150605Z 1506/1606 VRB03KT P6SM SCT015 FM150900 VRB03KT P6SM OVC015 FM151900 26009KT P6SM SCT025 BKN200 FM160200 VRB03KT P6SM SKC

Nov-15@
06:00 UTC

Nov-15 @ 06:00 UTC

Nov-15@
09:00 UTC

Nov-15 @ 09:00 UTC

KOXR 150605Z 1506/1606 VRB03KT P6SM SCT015
Wind
  • Variable at 3 KTS
Cloud Levels
  • Scattered at 1,500' AGL

Nov-15@
09:00 UTC

Nov-15 @ 09:00 UTC

Nov-15@
19:00 UTC

Nov-15 @ 19:00 UTC

FM150900 VRB03KT P6SM OVC015

From

From Standard forecast or significant change

Wind
  • Variable at 3 KTS
Cloud Levels
  • Overcast at 1,500' AGL

Nov-15@
19:00 UTC

Nov-15 @ 19:00 UTC

Nov-16@
02:00 UTC

Nov-16 @ 02:00 UTC

FM151900 26009KT P6SM SCT025 BKN200

From

From Standard forecast or significant change

Wind
  • 260° at 9 KTS
Cloud Levels
  • Scattered at 2,500' AGL
  • Broken at 20,000' AGL

Nov-16@
02:00 UTC

Nov-16 @ 02:00 UTC

Nov-16@
06:00 UTC

Nov-16 @ 06:00 UTC

FM160200 VRB03KT P6SM SKC

From

From Standard forecast or significant change

Wind
  • Variable at 3 KTS
Cloud Levels
  • Clear skies